createdAt,value
2023-05-13T00:02:08.348Z,19.56
2023-05-13T00:04:53.390Z,19.56
2023-05-13T00:07:38.714Z,19.53
2023-05-13T00:10:24.497Z,19.55
2023-05-13T00:13:09.728Z,19.54
2023-05-13T00:15:55.033Z,19.57
2023-05-13T00:18:40.379Z,19.53
2023-05-13T00:21:25.653Z,19.55
2023-05-13T00:24:10.433Z,19.53
2023-05-13T00:26:55.350Z,19.53
2023-05-13T00:29:40.411Z,19.45
2023-05-13T00:32:25.562Z,19.43
2023-05-13T00:35:10.697Z,19.43
2023-05-13T00:37:56.876Z,19.45
2023-05-13T00:40:42.328Z,19.57
2023-05-13T00:43:27.126Z,19.65
2023-05-13T00:46:12.096Z,19.60
2023-05-13T00:48:56.991Z,19.61
2023-05-13T00:51:41.950Z,19.59
2023-05-13T00:54:28.125Z,19.62
2023-05-13T00:57:13.314Z,19.60
2023-05-13T00:59:58.756Z,19.59
2023-05-13T01:03:00.038Z,19.56
2023-05-13T01:05:59.675Z,19.45
2023-05-13T01:08:58.362Z,19.47
2023-05-13T01:11:46.420Z,19.49
2023-05-13T01:14:36.891Z,19.49
2023-05-13T01:17:32.103Z,19.44
2023-05-13T01:20:22.173Z,19.46
2023-05-13T01:23:08.334Z,19.51
2023-05-13T01:25:53.436Z,19.50
2023-05-13T01:28:38.636Z,19.41
2023-05-13T01:31:24.290Z,19.39
2023-05-13T01:34:12.168Z,19.33
2023-05-13T01:36:59.159Z,19.39
2023-05-13T01:39:44.478Z,19.37
2023-05-13T01:42:30.877Z,19.39
2023-05-13T01:45:15.984Z,19.35
2023-05-13T01:48:01.125Z,19.31
2023-05-13T01:50:46.892Z,19.32
2023-05-13T01:53:31.945Z,19.36
2023-05-13T01:56:16.934Z,19.35
2023-05-13T01:59:02.025Z,19.34
2023-05-13T02:01:47.205Z,19.37
2023-05-13T02:04:32.286Z,19.33
2023-05-13T02:07:17.584Z,19.35
2023-05-13T02:10:02.711Z,19.32
2023-05-13T02:12:47.894Z,19.30
2023-05-13T02:15:32.750Z,19.22
2023-05-13T02:18:17.597Z,19.24
2023-05-13T02:21:02.423Z,19.25
2023-05-13T02:23:47.605Z,19.21
2023-05-13T02:26:32.712Z,19.20
2023-05-13T02:29:17.943Z,19.16
2023-05-13T02:32:02.870Z,19.17
2023-05-13T02:34:47.806Z,19.14
2023-05-13T02:37:32.709Z,19.13
2023-05-13T02:40:17.946Z,19.12
2023-05-13T02:43:03.302Z,19.17
2023-05-13T02:45:48.185Z,19.17
2023-05-13T02:48:33.633Z,19.10
2023-05-13T02:51:18.540Z,19.11
2023-05-13T02:54:03.690Z,19.11
2023-05-13T02:56:48.824Z,19.14
2023-05-13T02:59:33.786Z,19.09
2023-05-13T03:02:19.128Z,19.08
2023-05-13T03:05:04.237Z,19.03
2023-05-13T03:07:49.460Z,18.98
2023-05-13T03:10:34.971Z,18.99
2023-05-13T03:13:19.770Z,19.05
2023-05-13T03:16:04.909Z,19.09
2023-05-13T03:18:50.279Z,19.16
2023-05-13T03:21:35.445Z,19.17
2023-05-13T03:24:20.542Z,19.14
2023-05-13T03:27:05.732Z,19.17
2023-05-13T03:29:51.037Z,19.28
2023-05-13T03:32:36.332Z,19.38
2023-05-13T03:35:21.090Z,19.45
2023-05-13T03:38:06.165Z,19.61
2023-05-13T03:40:51.286Z,19.74
2023-05-13T03:43:36.224Z,19.91
2023-05-13T03:46:23.127Z,20.08
2023-05-13T03:49:07.891Z,20.16
2023-05-13T03:51:52.823Z,20.27
2023-05-13T03:54:37.731Z,20.46
2023-05-13T03:57:22.781Z,20.75
2023-05-13T04:00:09.358Z,21.03
2023-05-13T04:02:54.569Z,21.12
2023-05-13T04:05:40.147Z,21.34
2023-05-13T04:08:25.110Z,21.32
2023-05-13T04:11:10.128Z,21.44
2023-05-13T04:13:55.443Z,21.49
2023-05-13T04:16:40.519Z,21.59
2023-05-13T04:19:25.512Z,21.52
2023-05-13T04:22:10.582Z,21.60
2023-05-13T04:24:57.142Z,21.61
2023-05-13T04:27:42.705Z,21.76
2023-05-13T04:30:27.699Z,21.84
2023-05-13T04:33:12.756Z,22.11
2023-05-13T04:35:57.927Z,22.15
2023-05-13T04:38:42.946Z,22.17
2023-05-13T04:41:27.729Z,22.17
2023-05-13T04:44:13.722Z,22.25
2023-05-13T04:46:59.078Z,22.24
2023-05-13T04:49:44.273Z,22.29
2023-05-13T04:52:30.116Z,22.32
2023-05-13T04:55:15.298Z,22.31
2023-05-13T04:58:00.556Z,22.32
2023-05-13T05:00:45.723Z,22.41
2023-05-13T05:03:31.093Z,22.44
2023-05-13T05:06:16.014Z,22.53
2023-05-13T05:09:01.199Z,22.51
2023-05-13T05:11:46.335Z,22.63
2023-05-13T05:14:31.798Z,22.61
2023-05-13T05:17:16.679Z,22.75
2023-05-13T05:20:01.484Z,22.72
2023-05-13T05:22:46.394Z,22.73
2023-05-13T05:25:31.521Z,22.81
2023-05-13T05:28:16.624Z,22.81
2023-05-13T05:31:02.784Z,22.78
2023-05-13T05:33:47.933Z,22.95
2023-05-13T05:36:33.186Z,23.02
2023-05-13T05:39:18.044Z,23.06
2023-05-13T05:42:03.007Z,23.23
2023-05-13T05:44:48.276Z,23.11
2023-05-13T05:47:33.131Z,23.24
2023-05-13T05:50:17.899Z,23.13
2023-05-13T05:53:03.484Z,23.35
2023-05-13T05:55:49.652Z,23.25
2023-05-13T05:58:36.177Z,23.29
2023-05-13T06:01:21.354Z,23.11
2023-05-13T06:04:06.852Z,23.22
2023-05-13T06:06:52.359Z,23.20
2023-05-13T06:09:37.660Z,23.34
2023-05-13T06:12:22.786Z,23.14
2023-05-13T06:15:10.840Z,23.27
2023-05-13T06:17:56.176Z,23.28
2023-05-13T06:20:41.456Z,23.25
2023-05-13T06:23:26.521Z,23.25
2023-05-13T06:26:11.447Z,23.22
2023-05-13T06:28:56.621Z,23.26
2023-05-13T06:31:41.964Z,23.29
2023-05-13T06:34:27.218Z,23.32
2023-05-13T06:37:14.577Z,23.32
2023-05-13T06:40:00.012Z,23.33
2023-05-13T06:42:45.232Z,23.39
2023-05-13T06:45:30.233Z,23.28
2023-05-13T06:48:16.160Z,23.12
2023-05-13T06:51:01.185Z,22.91
2023-05-13T06:53:46.350Z,22.76
2023-05-13T06:56:31.718Z,22.75
2023-05-13T06:59:16.686Z,22.70
2023-05-13T07:02:01.789Z,22.69
2023-05-13T07:04:46.753Z,22.62
2023-05-13T07:07:31.953Z,22.65
2023-05-13T07:10:16.798Z,22.57
2023-05-13T07:13:02.657Z,22.57
2023-05-13T07:15:47.523Z,22.47
2023-05-13T07:18:32.592Z,22.54
2023-05-13T07:21:17.790Z,22.57
2023-05-13T07:24:05.110Z,22.60
2023-05-13T07:26:49.889Z,22.54
2023-05-13T07:29:34.824Z,22.54
2023-05-13T07:32:19.732Z,22.54
2023-05-13T07:35:05.343Z,22.54
2023-05-13T07:37:50.551Z,22.52
2023-05-13T07:40:35.758Z,22.53
2023-05-13T07:43:23.963Z,22.50
2023-05-13T07:46:09.058Z,22.45
2023-05-13T07:48:53.968Z,22.40
2023-05-13T07:51:39.254Z,22.34
2023-05-13T07:54:24.596Z,22.31
2023-05-13T07:57:09.751Z,22.23
2023-05-13T07:59:54.578Z,22.20
2023-05-13T08:02:39.804Z,22.14
2023-05-13T08:05:24.916Z,22.13
2023-05-13T08:08:09.837Z,22.11
2023-05-13T08:10:54.833Z,22.12
2023-05-13T08:13:39.794Z,22.07
2023-05-13T08:16:25.077Z,22.09
2023-05-13T08:19:09.950Z,22.04
2023-05-13T08:21:55.590Z,22.04
2023-05-13T08:24:41.086Z,22.01
2023-05-13T08:27:26.687Z,21.99
2023-05-13T08:30:12.055Z,21.94
2023-05-13T08:32:57.051Z,21.93
2023-05-13T08:35:44.720Z,21.89
2023-05-13T08:38:29.860Z,21.88
2023-05-13T08:41:15.707Z,21.86
2023-05-13T08:44:04.551Z,21.85
2023-05-13T08:46:55.622Z,21.81
2023-05-13T08:49:40.542Z,21.79
2023-05-13T08:52:26.573Z,21.76
2023-05-13T08:55:12.581Z,21.78
2023-05-13T08:57:57.504Z,21.75
2023-05-13T09:00:43.013Z,21.76
2023-05-13T09:03:29.049Z,21.76
2023-05-13T09:06:14.064Z,21.74
2023-05-13T09:08:59.192Z,21.76
2023-05-13T09:11:48.128Z,21.74
2023-05-13T09:14:33.464Z,21.73
2023-05-13T09:17:18.704Z,21.73
2023-05-13T09:20:08.780Z,21.71
2023-05-13T09:22:57.127Z,21.69
2023-05-13T09:25:43.292Z,21.65
2023-05-13T09:28:28.483Z,21.63
2023-05-13T09:31:13.528Z,21.61
2023-05-13T09:33:58.814Z,21.59
2023-05-13T09:36:43.731Z,21.60
2023-05-13T09:39:31.647Z,21.58
2023-05-13T09:42:19.523Z,21.56
2023-05-13T09:45:06.416Z,21.52
2023-05-13T09:47:53.506Z,21.52
2023-05-13T09:50:48.795Z,21.65
2023-05-13T09:53:33.772Z,21.72
2023-05-13T09:56:22.243Z,21.68
2023-05-13T09:59:07.264Z,21.69
2023-05-13T10:01:54.122Z,21.72
2023-05-13T10:04:39.389Z,21.74
2023-05-13T10:07:25.740Z,21.78
2023-05-13T10:10:11.289Z,21.61
2023-05-13T10:13:00.034Z,21.51
2023-05-13T10:15:54.514Z,21.48
2023-05-13T10:18:39.932Z,21.43
2023-05-13T10:21:27.452Z,21.40
2023-05-13T10:24:13.327Z,21.37
2023-05-13T10:26:59.363Z,21.35
2023-05-13T10:29:45.456Z,21.33
2023-05-13T10:32:31.636Z,21.30
2023-05-13T10:35:18.791Z,21.27
2023-05-13T10:38:16.372Z,21.25
2023-05-13T10:41:21.387Z,21.24
2023-05-13T10:44:08.694Z,21.26
2023-05-13T10:46:56.739Z,21.23
2023-05-13T10:49:50.635Z,21.22
2023-05-13T10:52:46.820Z,21.18
2023-05-13T10:55:40.987Z,21.18
2023-05-13T10:58:31.653Z,21.19
2023-05-13T11:01:25.462Z,21.16
2023-05-13T11:04:14.528Z,21.13
2023-05-13T11:07:15.272Z,21.18
2023-05-13T11:10:00.353Z,21.14
2023-05-13T11:13:19.652Z,21.10
2023-05-13T11:16:07.775Z,21.08
2023-05-13T11:18:53.280Z,21.06
2023-05-13T11:21:39.802Z,21.06
2023-05-13T11:24:26.485Z,21.05
2023-05-13T11:27:16.526Z,21.03
2023-05-13T11:30:06.233Z,20.96
2023-05-13T11:32:56.929Z,20.97
2023-05-13T11:35:43.766Z,20.94
2023-05-13T11:38:29.474Z,20.98
2023-05-13T11:41:14.671Z,20.96
2023-05-13T11:44:00.364Z,20.95
2023-05-13T11:46:51.568Z,20.93
2023-05-13T11:49:46.548Z,20.91
2023-05-13T11:52:31.518Z,20.89
2023-05-13T11:55:26.210Z,20.89
2023-05-13T11:58:14.567Z,20.83
2023-05-13T12:01:00.149Z,20.82
2023-05-13T12:03:45.304Z,20.78
2023-05-13T12:06:30.368Z,20.81
2023-05-13T12:09:15.549Z,20.80
2023-05-13T12:12:01.091Z,20.77
2023-05-13T12:14:50.068Z,20.79
2023-05-13T12:17:35.726Z,20.78
2023-05-13T12:20:23.298Z,20.77
2023-05-13T12:23:11.861Z,20.77
2023-05-13T12:25:56.692Z,20.81
2023-05-13T12:28:41.869Z,20.76
2023-05-13T12:31:27.425Z,20.78
2023-05-13T12:34:12.696Z,20.81
2023-05-13T12:37:10.598Z,20.79
2023-05-13T12:40:10.194Z,20.79
2023-05-13T12:42:58.062Z,20.75
2023-05-13T12:45:45.372Z,20.76
2023-05-13T12:48:33.060Z,20.73
2023-05-13T12:51:18.248Z,20.72
2023-05-13T12:54:03.118Z,20.72
2023-05-13T12:56:48.549Z,20.73
2023-05-13T12:59:34.675Z,20.72
2023-05-13T13:02:19.792Z,20.73
2023-05-13T13:05:05.180Z,20.71
2023-05-13T13:07:50.821Z,20.77
2023-05-13T13:10:35.642Z,20.73
2023-05-13T13:13:20.707Z,20.73
2023-05-13T13:32:10.665Z,21.08
2023-05-13T13:34:57.770Z,21.41
2023-05-13T13:42:15.148Z,21.93
2023-05-13T13:46:34.694Z,22.76
2023-05-13T13:49:24.002Z,22.69
2023-05-13T13:52:09.321Z,22.71
2023-05-13T13:54:54.893Z,22.76
2023-05-13T13:57:40.082Z,22.80
2023-05-13T14:00:26.166Z,22.85
2023-05-13T14:03:11.110Z,22.90
2023-05-13T14:05:56.480Z,22.94
2023-05-13T14:08:41.692Z,22.95
2023-05-13T14:11:26.742Z,22.95
2023-05-13T14:14:11.662Z,22.97
2023-05-13T14:16:56.642Z,23.01
2023-05-13T14:19:42.399Z,23.03
2023-05-13T14:22:27.642Z,23.05
2023-05-13T14:25:13.266Z,23.07
2023-05-13T14:27:58.295Z,23.09
2023-05-13T14:30:43.163Z,23.09
2023-05-13T14:33:28.034Z,23.09
2023-05-13T14:36:16.100Z,23.06
2023-05-13T14:39:01.425Z,23.06
2023-05-13T14:41:46.444Z,23.07
2023-05-13T14:44:31.836Z,23.07
2023-05-13T14:47:16.661Z,23.07
2023-05-13T14:50:01.818Z,23.03
2023-05-13T14:52:46.935Z,22.99
2023-05-13T14:55:32.091Z,22.94
2023-05-13T14:58:17.369Z,22.90
2023-05-13T15:01:02.799Z,22.86
2023-05-13T15:03:48.022Z,22.84
2023-05-13T15:06:33.588Z,22.80
2023-05-13T15:09:19.629Z,22.79
2023-05-13T15:12:04.883Z,22.79
2023-05-13T15:14:53.894Z,22.79
2023-05-13T15:17:39.058Z,22.78
2023-05-13T15:20:24.503Z,22.76
2023-05-13T15:23:09.474Z,22.74
2023-05-13T15:25:54.441Z,22.71
2023-05-13T15:28:39.714Z,22.71
2023-05-13T15:31:25.052Z,22.71
2023-05-13T15:34:10.471Z,22.71
2023-05-13T15:36:55.530Z,22.74
2023-05-13T15:39:40.287Z,22.74
2023-05-13T15:42:25.266Z,22.75
2023-05-13T15:45:10.607Z,22.77
2023-05-13T15:47:56.058Z,22.78
2023-05-13T15:50:41.566Z,22.78
2023-05-13T15:53:26.731Z,22.78
2023-05-13T15:56:11.679Z,22.76
2023-05-13T15:58:56.734Z,22.76
2023-05-13T16:01:42.021Z,22.75
2023-05-13T16:04:27.051Z,22.71
2023-05-13T16:07:12.096Z,22.67
2023-05-13T16:09:57.174Z,22.65
2023-05-13T16:12:42.874Z,22.63
2023-05-13T16:15:27.969Z,22.60
2023-05-13T16:18:13.325Z,22.59
2023-05-13T16:20:58.491Z,22.57
2023-05-13T16:23:43.585Z,22.56
2023-05-13T16:26:28.429Z,22.55
2023-05-13T16:29:13.487Z,22.56
2023-05-13T16:31:58.490Z,22.56
2023-05-13T16:34:43.477Z,22.56
2023-05-13T16:37:29.016Z,22.55
2023-05-13T16:40:14.305Z,22.54
2023-05-13T16:43:02.587Z,22.54
2023-05-13T16:45:48.549Z,22.53
2023-05-13T16:48:33.652Z,22.54
2023-05-13T16:51:18.723Z,22.54
2023-05-13T16:54:03.864Z,22.51
2023-05-13T16:56:50.500Z,22.51
2023-05-13T16:59:35.461Z,22.51
2023-05-13T17:02:20.744Z,22.48
2023-05-13T17:05:06.146Z,22.52
2023-05-13T17:07:51.437Z,22.54
2023-05-13T17:10:36.496Z,22.58
2023-05-13T17:13:22.133Z,22.61
2023-05-13T17:16:07.816Z,22.66
2023-05-13T17:18:52.840Z,22.65
2023-05-13T17:21:37.852Z,22.63
2023-05-13T17:24:23.047Z,22.61
2023-05-13T17:27:08.389Z,22.59
2023-05-13T17:29:53.261Z,22.57
2023-05-13T17:32:38.035Z,22.56
2023-05-13T17:35:23.143Z,22.54
2023-05-13T17:38:08.251Z,22.52
2023-05-13T17:40:53.258Z,22.50
2023-05-13T17:43:38.443Z,22.48
2023-05-13T17:46:23.659Z,22.48
2023-05-13T17:49:09.169Z,22.46
2023-05-13T17:51:54.139Z,22.44
2023-05-13T17:54:39.122Z,22.42
2023-05-13T17:57:24.227Z,22.41
2023-05-13T18:00:09.470Z,22.39
2023-05-13T18:02:54.497Z,22.39
2023-05-13T18:05:39.664Z,22.37
2023-05-13T18:08:24.886Z,22.35
2023-05-13T18:11:10.110Z,22.34
2023-05-13T18:13:55.401Z,22.32
2023-05-13T18:16:40.791Z,22.31
2023-05-13T18:19:25.781Z,22.29
2023-05-13T18:22:11.566Z,22.28
2023-05-13T18:24:56.849Z,22.26
2023-05-13T18:27:42.032Z,22.26
2023-05-13T18:30:27.086Z,22.24
2023-05-13T18:33:12.131Z,22.24
2023-05-13T18:35:57.550Z,22.22
2023-05-13T18:38:42.471Z,22.19
2023-05-13T18:41:27.521Z,22.18
2023-05-13T18:44:12.630Z,22.17
2023-05-13T18:46:57.683Z,22.15
2023-05-13T18:49:42.459Z,22.15
2023-05-13T18:52:27.462Z,22.13
2023-05-13T18:55:12.218Z,22.13
2023-05-13T18:57:57.115Z,22.12
2023-05-13T19:00:42.457Z,22.11
2023-05-13T19:03:27.611Z,22.09
2023-05-13T19:06:13.001Z,22.08
2023-05-13T19:08:57.806Z,22.07
2023-05-13T19:11:44.110Z,22.06
2023-05-13T19:14:28.987Z,22.04
2023-05-13T19:17:14.135Z,22.04
2023-05-13T19:20:00.383Z,22.02
2023-05-13T19:22:45.682Z,22.02
2023-05-13T19:25:30.761Z,22.01
2023-05-13T19:28:16.869Z,22.00
2023-05-13T19:31:04.268Z,21.97
2023-05-13T19:33:49.415Z,21.96
2023-05-13T19:36:34.565Z,21.96
2023-05-13T19:39:19.865Z,21.95
2023-05-13T19:42:04.881Z,21.95
2023-05-13T19:44:49.969Z,21.93
2023-05-13T19:47:34.990Z,21.92
2023-05-13T19:50:20.285Z,21.91
2023-05-13T19:53:05.628Z,21.88
2023-05-13T19:55:50.816Z,21.85
2023-05-13T19:58:36.578Z,21.85
2023-05-13T20:01:21.471Z,21.82
2023-05-13T20:04:06.607Z,21.80
2023-05-13T20:06:51.916Z,21.79
2023-05-13T20:09:37.205Z,21.77
2023-05-13T20:12:22.511Z,21.75
2023-05-13T20:15:07.981Z,21.73
2023-05-13T20:17:53.271Z,21.72
2023-05-13T20:20:38.597Z,21.68
2023-05-13T20:23:23.858Z,21.69
2023-05-13T20:26:08.722Z,21.65
2023-05-13T20:28:53.980Z,21.65
2023-05-13T20:31:42.563Z,21.64
2023-05-13T20:34:27.547Z,21.61
2023-05-13T20:37:12.468Z,21.60
2023-05-13T20:39:57.482Z,21.59
2023-05-13T20:42:42.362Z,21.59
2023-05-13T20:45:28.519Z,21.58
2023-05-13T20:48:13.663Z,21.57
2023-05-13T20:51:02.361Z,21.55
2023-05-13T20:53:47.612Z,21.52
2023-05-13T20:56:32.734Z,21.49
2023-05-13T20:59:17.667Z,21.48
2023-05-13T21:02:02.872Z,21.47
2023-05-13T21:04:48.143Z,21.46
2023-05-13T21:07:35.326Z,21.45
2023-05-13T21:10:20.538Z,21.44
2023-05-13T21:13:05.682Z,21.43
2023-05-13T21:15:51.907Z,21.42
2023-05-13T21:18:37.426Z,21.41
2023-05-13T21:21:22.637Z,21.41
2023-05-13T21:24:07.528Z,21.41
2023-05-13T21:26:52.479Z,21.40
2023-05-13T21:29:37.339Z,21.38
2023-05-13T21:32:22.266Z,21.38
2023-05-13T21:35:07.708Z,21.36
2023-05-13T21:37:56.088Z,21.37
2023-05-13T21:40:46.241Z,21.34
2023-05-13T21:43:31.445Z,21.32
2023-05-13T21:46:16.472Z,21.31
2023-05-13T21:49:02.088Z,21.30
2023-05-13T21:51:47.043Z,21.29
2023-05-13T21:54:31.912Z,21.29
2023-05-13T21:57:16.807Z,21.25
2023-05-13T22:00:01.952Z,21.25
2023-05-13T22:02:49.782Z,21.23
2023-05-13T22:05:37.537Z,21.22
2023-05-13T22:08:22.678Z,21.22
2023-05-13T22:11:07.654Z,21.20
2023-05-13T22:13:52.448Z,21.18
2023-05-13T22:16:37.396Z,21.16
2023-05-13T22:19:22.808Z,21.17
2023-05-13T22:22:08.206Z,21.22
2023-05-13T22:24:53.012Z,21.28
2023-05-13T22:27:38.140Z,21.33
2023-05-13T22:30:23.452Z,21.38
2023-05-13T22:33:08.544Z,21.42
2023-05-13T22:35:53.390Z,21.45
2023-05-13T22:38:38.919Z,21.49
2023-05-13T22:41:26.251Z,21.50
2023-05-13T22:44:11.757Z,21.50
2023-05-13T22:46:56.928Z,21.49
2023-05-13T22:49:41.741Z,21.49
2023-05-13T22:52:26.610Z,21.49
2023-05-13T22:55:11.592Z,21.50
2023-05-13T22:57:56.860Z,21.52
2023-05-13T23:00:41.948Z,21.51
2023-05-13T23:03:27.122Z,21.51
2023-05-13T23:06:11.990Z,21.52
2023-05-13T23:08:57.403Z,21.52
2023-05-13T23:11:42.287Z,21.51
2023-05-13T23:14:27.653Z,21.52
2023-05-13T23:17:12.409Z,21.51
2023-05-13T23:19:57.488Z,21.50
2023-05-13T23:22:42.634Z,21.51
2023-05-13T23:25:27.687Z,21.50
2023-05-13T23:28:13.249Z,21.49
2023-05-13T23:30:58.100Z,21.48
2023-05-13T23:33:43.111Z,21.46
2023-05-13T23:36:28.116Z,21.44
2023-05-13T23:39:13.036Z,21.43
2023-05-13T23:41:57.988Z,21.43
2023-05-13T23:44:43.249Z,21.44
2023-05-13T23:47:28.405Z,21.43
2023-05-13T23:50:13.209Z,21.42
2023-05-13T23:52:58.323Z,21.44
2023-05-13T23:55:43.315Z,21.42
2023-05-13T23:58:28.303Z,21.40
